KTDR

Panama City

Panama City, Florida, USA
METAR KTDR 220456Z AUTO 26005KT 10SM CLR 28/24 A2991 RMK AO2 SLP132 T02800236 $
Observed Flight Rules
Jun-22 @ 04:56 UTC (37 minutes ago) Visual Flight Rules
Wind Visibility Clouds
260° at 5 knots 10 miles
  • Clear skies
Temperatures Readings
Current 28°C / 82°F
Dewpoint 24°C / 75°F
Humidity 79%
Altimeter 29.91" Hg
Pressure 1013.2 hPa
Elevation 5
METAR KTDR 220456Z AUTO 26005KT 10SM CLR 28/24 A2991 RMK AO2 SLP132 T02800236 $
Observed Flight Rules
Jun-22 @ 04:56 UTC
(37 minutes ago)
VFR
Wind Visibility
260° at 5 knots 10 miles
Clouds
  • Clear skies
Temperature Dewpoint
28°C / 82°F 24°C / 75°F
Humidity Altimeter Pressure
79% 29.91" Hg 1013.2 hPa